createdAt,value
2023-02-26T00:01:31.248Z,1.80
2023-02-26T00:04:01.431Z,1.80
2023-02-26T00:06:31.486Z,1.80
2023-02-26T00:08:59.101Z,1.80
2023-02-26T00:11:26.663Z,1.80
2023-02-26T00:13:54.065Z,1.70
2023-02-26T00:16:34.760Z,1.60
2023-02-26T00:19:08.392Z,1.60
2023-02-26T00:21:36.592Z,1.60
2023-02-26T00:24:07.001Z,1.60
2023-02-26T00:26:35.924Z,1.60
2023-02-26T00:29:04.598Z,1.60
2023-02-26T00:31:32.211Z,1.60
2023-02-26T00:34:15.616Z,1.60
2023-02-26T00:36:46.495Z,1.60
2023-02-26T00:39:19.667Z,1.60
2023-02-26T00:41:48.315Z,1.60
2023-02-26T00:44:15.975Z,1.60
2023-02-26T00:46:50.177Z,1.60
2023-02-26T00:49:27.648Z,1.60
2023-02-26T00:51:54.837Z,1.60
2023-02-26T00:54:27.823Z,1.70
2023-02-26T00:56:56.229Z,1.70
2023-02-26T00:59:23.863Z,1.70
2023-02-26T01:01:52.418Z,1.70
2023-02-26T01:04:22.854Z,1.70
2023-02-26T01:06:56.591Z,1.70
2023-02-26T01:09:27.883Z,1.70
2023-02-26T01:12:01.783Z,1.70
2023-02-26T01:14:30.257Z,1.80
2023-02-26T01:17:11.842Z,1.70
2023-02-26T01:19:45.363Z,1.80
2023-02-26T01:22:31.652Z,1.80
2023-02-26T01:25:11.911Z,1.70
2023-02-26T01:27:40.045Z,1.80
2023-02-26T01:30:08.570Z,1.70
2023-02-26T01:32:45.081Z,1.80
2023-02-26T01:35:39.817Z,1.80
2023-02-26T01:38:16.706Z,1.80
2023-02-26T01:41:01.979Z,1.90
2023-02-26T01:43:37.949Z,1.90
2023-02-26T01:46:37.575Z,2.00
2023-02-26T01:49:12.267Z,1.90
2023-02-26T01:51:47.481Z,1.90
2023-02-26T01:54:16.676Z,1.90
2023-02-26T01:56:45.554Z,1.90
2023-02-26T01:59:15.913Z,1.90
2023-02-26T02:01:43.985Z,1.90
2023-02-26T02:04:14.788Z,1.90
2023-02-26T02:06:43.324Z,2.00
2023-02-26T02:09:10.654Z,1.90
2023-02-26T02:11:51.245Z,1.90
2023-02-26T02:14:45.210Z,1.80
2023-02-26T02:17:41.809Z,1.90
2023-02-26T02:20:35.903Z,1.90
2023-02-26T02:23:09.065Z,2.00
2023-02-26T02:25:44.390Z,2.00
2023-02-26T02:28:29.886Z,2.00
2023-02-26T02:31:21.046Z,1.90
2023-02-26T02:34:23.906Z,1.90
2023-02-26T02:37:01.433Z,1.90
2023-02-26T02:39:37.831Z,1.80
2023-02-26T02:42:16.805Z,1.90
2023-02-26T02:44:51.119Z,1.90
2023-02-26T02:47:20.916Z,1.90
2023-02-26T02:49:55.690Z,1.90
2023-02-26T02:55:40.420Z,1.80
2023-02-26T02:58:17.438Z,1.80
2023-02-26T03:00:49.924Z,1.80
2023-02-26T03:03:16.995Z,1.80
2023-02-26T03:05:44.149Z,1.80
2023-02-26T03:08:15.839Z,1.80
2023-02-26T03:10:46.843Z,1.80
2023-02-26T03:13:21.187Z,1.80
2023-02-26T03:16:09.208Z,1.80
2023-02-26T03:18:42.589Z,1.80
2023-02-26T03:21:38.612Z,1.80
2023-02-26T03:24:26.998Z,1.80
2023-02-26T03:27:33.273Z,1.70
2023-02-26T03:30:09.415Z,1.80
2023-02-26T03:32:45.327Z,1.80
2023-02-26T03:35:18.871Z,1.70
2023-02-26T03:37:50.446Z,1.70
2023-02-26T03:40:24.931Z,1.70
2023-02-26T03:43:04.699Z,1.70
2023-02-26T03:45:35.114Z,1.70
2023-02-26T03:48:05.984Z,1.70
2023-02-26T03:50:42.961Z,1.70
2023-02-26T03:53:40.184Z,1.70
2023-02-26T03:56:32.868Z,1.70
2023-02-26T03:59:19.324Z,1.70
2023-02-26T04:02:07.504Z,1.70
2023-02-26T04:04:49.566Z,1.60
2023-02-26T04:07:18.305Z,1.60
2023-02-26T04:09:48.369Z,1.70
2023-02-26T04:12:20.283Z,1.60
2023-02-26T04:14:49.180Z,1.60
2023-02-26T04:17:18.442Z,1.60
2023-02-26T04:19:45.851Z,1.60
2023-02-26T04:22:13.414Z,1.60
2023-02-26T04:24:40.630Z,1.50
2023-02-26T04:27:07.942Z,1.50
2023-02-26T04:29:34.988Z,1.50
2023-02-26T04:32:02.629Z,1.50
2023-02-26T04:34:30.362Z,1.50
2023-02-26T04:36:57.460Z,1.40
2023-02-26T04:39:24.598Z,1.40
2023-02-26T04:41:51.936Z,1.40
2023-02-26T04:44:18.898Z,1.40
2023-02-26T04:46:46.078Z,1.40
2023-02-26T04:49:13.405Z,1.40
2023-02-26T04:51:43.892Z,1.40
2023-02-26T04:54:13.543Z,1.40
2023-02-26T04:56:41.193Z,1.40
2023-02-26T04:59:08.226Z,1.40
2023-02-26T05:01:36.340Z,1.40
2023-02-26T05:04:05.510Z,1.40
2023-02-26T05:06:33.113Z,1.40
2023-02-26T05:09:00.178Z,1.40
2023-02-26T05:11:27.211Z,1.30
2023-02-26T05:13:54.252Z,1.40
2023-02-26T05:16:21.421Z,1.40
2023-02-26T05:18:48.437Z,1.40
2023-02-26T05:21:15.674Z,1.40
2023-02-26T05:23:42.796Z,1.40
2023-02-26T05:26:09.924Z,1.40
2023-02-26T05:28:38.148Z,1.40
2023-02-26T05:31:06.881Z,1.40
2023-02-26T05:33:33.923Z,1.40
2023-02-26T05:36:00.968Z,1.40
2023-02-26T05:38:28.111Z,1.40
2023-02-26T05:40:59.236Z,1.40
2023-02-26T05:43:26.830Z,1.40
2023-02-26T05:45:55.562Z,1.40
2023-02-26T05:48:23.363Z,1.40
2023-02-26T05:50:51.067Z,1.40
2023-02-26T05:53:18.353Z,1.40
2023-02-26T05:55:45.516Z,1.40
2023-02-26T05:58:12.625Z,1.40
2023-02-26T06:00:39.826Z,1.40
2023-02-26T06:03:06.852Z,1.40
2023-02-26T06:05:33.884Z,1.30
2023-02-26T06:08:01.025Z,1.40
2023-02-26T06:10:28.264Z,1.40
2023-02-26T06:12:55.242Z,1.40
2023-02-26T06:15:22.326Z,1.40
2023-02-26T06:17:49.372Z,1.30
2023-02-26T06:20:16.856Z,1.40
2023-02-26T06:22:44.114Z,1.50
2023-02-26T06:25:11.285Z,1.50
2023-02-26T06:27:38.247Z,1.50
2023-02-26T06:30:06.412Z,1.50
2023-02-26T06:32:33.942Z,1.60
2023-02-26T06:35:01.167Z,1.60
2023-02-26T06:37:28.160Z,1.50
2023-02-26T06:39:55.171Z,1.50
2023-02-26T06:42:23.071Z,1.60
2023-02-26T06:44:50.119Z,1.70
2023-02-26T06:47:17.154Z,1.60
2023-02-26T06:49:44.222Z,1.70
2023-02-26T06:52:11.375Z,1.70
2023-02-26T06:54:38.363Z,1.90
2023-02-26T06:57:05.451Z,2.40
2023-02-26T06:59:33.035Z,2.90
2023-02-26T07:02:00.104Z,3.90
2023-02-26T07:04:27.229Z,4.60
2023-02-26T07:06:54.348Z,5.10
2023-02-26T07:09:21.382Z,5.20
2023-02-26T07:11:48.526Z,4.90
2023-02-26T07:14:15.907Z,5.10
2023-02-26T07:16:42.966Z,5.70
2023-02-26T07:19:10.076Z,6.30
2023-02-26T07:21:37.209Z,6.70
2023-02-26T07:24:04.462Z,7.00
2023-02-26T07:26:31.481Z,7.10
2023-02-26T07:28:58.433Z,7.30
2023-02-26T07:31:25.579Z,6.90
2023-02-26T07:33:52.804Z,6.60
2023-02-26T07:36:20.052Z,5.60
2023-02-26T07:38:47.160Z,5.60
2023-02-26T07:41:14.173Z,5.90
2023-02-26T07:43:42.668Z,6.20
2023-02-26T07:46:09.949Z,6.70
2023-02-26T07:48:37.342Z,6.90
2023-02-26T07:51:04.833Z,7.40
2023-02-26T07:53:31.878Z,7.00
2023-02-26T07:55:58.863Z,6.00
2023-02-26T07:58:26.062Z,5.40
2023-02-26T08:00:53.148Z,4.50
2023-02-26T08:03:20.576Z,4.10
2023-02-26T08:05:47.766Z,4.00
2023-02-26T08:08:14.882Z,3.80
2023-02-26T08:10:42.488Z,3.60
2023-02-26T08:13:09.669Z,3.40
2023-02-26T08:15:36.661Z,3.10
2023-02-26T08:18:04.021Z,3.10
2023-02-26T08:20:31.220Z,3.00
2023-02-26T08:22:58.319Z,2.80
2023-02-26T08:25:25.349Z,2.70
2023-02-26T08:27:52.778Z,2.70
2023-02-26T08:30:19.979Z,2.70
2023-02-26T08:32:47.186Z,2.70
2023-02-26T08:35:14.299Z,2.60
2023-02-26T08:37:41.456Z,2.70
2023-02-26T08:40:10.253Z,2.70
2023-02-26T08:42:37.581Z,2.70
2023-02-26T08:45:05.294Z,2.70
2023-02-26T08:47:33.037Z,2.80
2023-02-26T08:50:01.239Z,2.80
2023-02-26T08:52:28.362Z,2.90
2023-02-26T08:54:55.454Z,3.20
2023-02-26T08:57:22.455Z,3.90
2023-02-26T08:59:49.516Z,4.80
2023-02-26T09:02:16.518Z,5.20
2023-02-26T09:04:43.572Z,5.20
2023-02-26T09:07:10.570Z,5.00
2023-02-26T09:09:37.647Z,4.60
2023-02-26T09:12:04.928Z,4.50
2023-02-26T09:14:31.941Z,4.40
2023-02-26T09:16:58.982Z,4.40
2023-02-26T09:19:26.104Z,4.30
2023-02-26T09:21:53.188Z,3.90
2023-02-26T09:24:20.179Z,3.70
2023-02-26T09:26:47.132Z,3.20
2023-02-26T09:29:14.978Z,2.70
2023-02-26T09:31:42.504Z,2.40
2023-02-26T09:34:11.435Z,2.30
2023-02-26T09:36:39.005Z,2.00
2023-02-26T09:39:08.801Z,1.90
2023-02-26T09:41:58.882Z,1.90
2023-02-26T09:44:25.914Z,1.80
2023-02-26T09:47:08.293Z,1.80
2023-02-26T09:49:50.473Z,1.90
2023-02-26T09:52:18.323Z,2.00
2023-02-26T09:54:53.546Z,2.20
2023-02-26T09:57:33.591Z,2.30
2023-02-26T10:00:01.832Z,2.50
2023-02-26T10:02:55.312Z,2.70
2023-02-26T10:05:50.078Z,2.90
2023-02-26T10:08:18.899Z,3.30
2023-02-26T10:10:46.036Z,3.80
2023-02-26T10:13:31.638Z,4.20
2023-02-26T10:16:06.434Z,4.50
2023-02-26T10:18:39.620Z,4.40
2023-02-26T10:21:15.331Z,4.40
2023-02-26T10:23:48.991Z,4.20
2023-02-26T10:26:30.173Z,3.90
2023-02-26T10:29:07.095Z,3.80
2023-02-26T10:32:00.164Z,3.60
2023-02-26T10:34:48.011Z,3.50
2023-02-26T10:37:33.331Z,3.60
2023-02-26T10:40:26.680Z,3.90
2023-02-26T10:43:20.357Z,4.50
2023-02-26T10:45:59.594Z,5.20
2023-02-26T10:48:41.692Z,5.70
2023-02-26T10:51:20.208Z,6.10
2023-02-26T10:53:54.903Z,5.50
2023-02-26T10:56:31.378Z,5.80
2023-02-26T10:58:59.812Z,6.00
2023-02-26T11:01:29.836Z,5.90
2023-02-26T11:04:04.041Z,6.20
2023-02-26T11:06:38.122Z,6.30
2023-02-26T11:09:13.922Z,6.60
2023-02-26T11:11:49.056Z,6.40
2023-02-26T11:14:16.275Z,6.00
2023-02-26T11:17:10.297Z,6.10
2023-02-26T11:19:48.765Z,6.80
2023-02-26T11:22:16.713Z,6.90
2023-02-26T11:24:47.858Z,6.40
2023-02-26T11:27:20.485Z,6.00
2023-02-26T11:29:49.962Z,5.50
2023-02-26T11:32:21.830Z,5.30
2023-02-26T11:34:50.871Z,5.10
2023-02-26T11:37:23.883Z,4.90
2023-02-26T11:40:18.269Z,4.70
2023-02-26T11:42:58.999Z,4.70
2023-02-26T11:45:26.500Z,4.50
2023-02-26T11:48:08.206Z,4.40
2023-02-26T11:50:46.386Z,4.00
2023-02-26T11:53:28.359Z,3.60
2023-02-26T11:56:02.062Z,3.20
2023-02-26T11:58:35.437Z,2.90
2023-02-26T12:01:03.800Z,2.90
2023-02-26T12:03:41.315Z,2.70
2023-02-26T12:06:16.622Z,2.70
2023-02-26T12:08:44.232Z,2.70
2023-02-26T12:11:36.399Z,2.80
2023-02-26T12:14:28.504Z,2.80
2023-02-26T12:17:07.711Z,2.90
2023-02-26T12:20:16.587Z,2.90
2023-02-26T12:23:14.750Z,3.10
2023-02-26T12:26:10.643Z,3.10
2023-02-26T12:28:55.203Z,3.10
2023-02-26T12:31:59.444Z,3.10
2023-02-26T12:34:29.847Z,3.20
2023-02-26T12:37:48.739Z,3.30
2023-02-26T12:40:32.934Z,3.50
2023-02-26T12:43:04.343Z,3.60
2023-02-26T12:45:59.707Z,3.60
2023-02-26T12:48:54.799Z,3.50
2023-02-26T12:51:49.973Z,3.40
2023-02-26T12:54:44.186Z,3.20
2023-02-26T12:57:56.039Z,3.00
2023-02-26T13:00:45.904Z,2.80
2023-02-26T13:03:23.464Z,2.70
2023-02-26T13:06:09.026Z,2.60
2023-02-26T13:08:52.480Z,2.60
2023-02-26T13:11:54.682Z,2.50
2023-02-26T13:14:55.077Z,2.50
2023-02-26T13:17:50.133Z,2.40
2023-02-26T13:20:23.772Z,2.30
2023-02-26T13:22:56.765Z,2.30
2023-02-26T13:25:41.226Z,2.30
2023-02-26T13:28:33.604Z,2.30
2023-02-26T13:31:03.835Z,2.20
2023-02-26T13:33:34.685Z,2.10
2023-02-26T13:36:02.770Z,2.10
2023-02-26T13:38:49.755Z,2.00
2023-02-26T13:41:20.862Z,1.90
2023-02-26T13:44:02.679Z,1.90
2023-02-26T13:46:50.074Z,1.90
2023-02-26T13:49:17.156Z,1.90
2023-02-26T13:51:48.971Z,2.00
2023-02-26T13:54:22.021Z,2.00
2023-02-26T13:57:10.088Z,2.10
2023-02-26T13:59:52.636Z,2.20
2023-02-26T14:02:19.716Z,2.20
2023-02-26T14:04:57.845Z,2.20
2023-02-26T14:07:55.971Z,2.20
2023-02-26T14:10:44.053Z,2.20
2023-02-26T14:13:17.441Z,2.20
2023-02-26T14:16:02.690Z,2.20
2023-02-26T14:18:48.129Z,2.20
2023-02-26T14:21:28.028Z,2.10
2023-02-26T14:24:16.322Z,2.20
2023-02-26T14:26:49.892Z,2.10
2023-02-26T14:29:20.795Z,2.10
2023-02-26T14:31:55.763Z,2.10
2023-02-26T14:34:26.393Z,2.00
2023-02-26T14:36:56.897Z,2.10
2023-02-26T14:39:35.000Z,2.10
2023-02-26T14:42:50.195Z,2.10
2023-02-26T14:45:17.192Z,2.20
2023-02-26T14:47:45.493Z,2.30
2023-02-26T14:50:16.889Z,2.30
2023-02-26T14:52:49.656Z,2.30
2023-02-26T14:55:28.514Z,2.30
2023-02-26T14:58:21.863Z,2.40
2023-02-26T15:00:58.368Z,2.40
2023-02-26T15:03:29.505Z,2.30
2023-02-26T15:06:34.501Z,2.30
2023-02-26T15:09:04.701Z,2.30
2023-02-26T15:11:50.385Z,2.30
2023-02-26T15:14:59.806Z,2.30
2023-02-26T15:17:54.253Z,2.20
2023-02-26T15:20:43.477Z,2.20
2023-02-26T15:23:18.768Z,2.10
2023-02-26T15:25:48.778Z,2.10
2023-02-26T15:28:29.029Z,2.10
2023-02-26T15:30:57.757Z,2.10
2023-02-26T15:33:25.898Z,2.10
2023-02-26T15:35:54.750Z,2.00
2023-02-26T15:38:23.097Z,1.90
2023-02-26T15:40:53.144Z,1.90
2023-02-26T15:43:28.731Z,1.80
2023-02-26T15:45:58.363Z,1.80
2023-02-26T15:48:36.924Z,1.70
2023-02-26T15:51:07.684Z,1.60
2023-02-26T15:53:37.148Z,1.50
2023-02-26T15:56:22.038Z,1.40
2023-02-26T15:59:01.922Z,1.40
2023-02-26T16:01:30.921Z,1.30
2023-02-26T16:04:02.181Z,1.20
2023-02-26T16:06:32.489Z,1.10
2023-02-26T16:09:00.935Z,1.20
2023-02-26T16:11:37.940Z,1.20
2023-02-26T16:14:06.787Z,1.10
2023-02-26T16:16:46.685Z,1.10
2023-02-26T16:19:32.545Z,1.10
2023-02-26T16:22:04.402Z,1.10
2023-02-26T16:24:33.546Z,1.10
2023-02-26T16:27:07.088Z,1.10
2023-02-26T16:29:37.184Z,1.10
2023-02-26T16:32:06.905Z,1.10
2023-02-26T16:34:49.043Z,1.10
2023-02-26T16:37:36.185Z,1.10
2023-02-26T16:40:11.930Z,1.10
2023-02-26T16:42:50.845Z,1.10
2023-02-26T16:45:36.692Z,1.10
2023-02-26T16:48:18.546Z,1.10
2023-02-26T16:51:00.987Z,1.10
2023-02-26T16:53:45.257Z,1.10
2023-02-26T16:56:25.664Z,1.10
2023-02-26T16:59:16.195Z,1.10
2023-02-26T17:01:57.601Z,1.10
2023-02-26T17:04:28.976Z,1.20
2023-02-26T17:06:56.716Z,1.20
2023-02-26T17:09:50.779Z,1.20
2023-02-26T17:12:22.568Z,1.20
2023-02-26T17:14:57.932Z,1.20
2023-02-26T17:17:26.169Z,1.20
2023-02-26T17:19:53.369Z,1.20
2023-02-26T17:22:26.585Z,1.20
2023-02-26T17:24:53.769Z,1.10
2023-02-26T17:27:31.042Z,1.10
2023-02-26T17:29:58.969Z,1.10
2023-02-26T17:32:27.979Z,1.10
2023-02-26T17:34:55.165Z,1.10
2023-02-26T17:37:24.928Z,1.00
2023-02-26T17:39:51.887Z,1.10
2023-02-26T17:42:21.580Z,1.10
2023-02-26T17:44:48.904Z,1.10
2023-02-26T17:47:26.532Z,1.00
2023-02-26T17:49:54.272Z,1.00
2023-02-26T17:52:21.438Z,1.00
2023-02-26T17:54:48.756Z,1.10
2023-02-26T17:57:23.340Z,1.10
2023-02-26T17:59:50.538Z,1.10
2023-02-26T18:02:28.235Z,1.10
2023-02-26T18:04:55.409Z,1.10
2023-02-26T18:07:24.095Z,1.10
2023-02-26T18:09:51.234Z,1.10
2023-02-26T18:12:21.372Z,1.00
2023-02-26T18:14:49.237Z,1.00
2023-02-26T18:17:23.501Z,1.00
2023-02-26T18:19:50.864Z,1.00
2023-02-26T18:22:19.962Z,1.00
2023-02-26T18:24:46.976Z,1.10
2023-02-26T18:27:16.778Z,1.10
2023-02-26T18:29:44.161Z,1.00
2023-02-26T18:32:22.814Z,1.10
2023-02-26T18:34:51.229Z,1.10
2023-02-26T18:37:23.395Z,1.10
2023-02-26T18:39:50.750Z,1.10
2023-02-26T18:42:24.255Z,1.20
2023-02-26T18:44:52.980Z,1.10
2023-02-26T18:47:21.667Z,1.10
2023-02-26T18:49:50.395Z,1.10
2023-02-26T18:52:18.120Z,1.10
2023-02-26T18:54:45.282Z,1.10
2023-02-26T18:57:12.342Z,1.10
2023-02-26T18:59:39.413Z,1.00
2023-02-26T19:02:07.934Z,1.00
2023-02-26T19:04:35.257Z,1.10
2023-02-26T19:07:02.496Z,1.10
2023-02-26T19:09:30.065Z,1.00
2023-02-26T19:11:57.726Z,1.00
2023-02-26T19:14:25.629Z,1.00
2023-02-26T19:16:52.860Z,1.10
2023-02-26T19:19:20.266Z,1.10
2023-02-26T19:21:48.379Z,1.00
2023-02-26T19:24:16.366Z,1.00
2023-02-26T19:26:43.869Z,1.10
2023-02-26T19:29:14.848Z,1.00
2023-02-26T19:31:42.381Z,1.10
2023-02-26T19:34:10.372Z,1.10
2023-02-26T19:36:37.735Z,1.10
2023-02-26T19:39:05.748Z,1.10
2023-02-26T19:41:33.520Z,1.00
2023-02-26T19:44:00.549Z,1.10
2023-02-26T19:46:27.737Z,1.10
2023-02-26T19:48:54.841Z,1.10
2023-02-26T19:51:21.850Z,1.10
2023-02-26T19:53:48.895Z,1.10
2023-02-26T19:56:15.999Z,1.10
2023-02-26T19:58:43.651Z,1.10
2023-02-26T20:01:10.802Z,1.10
2023-02-26T20:03:37.909Z,1.10
2023-02-26T20:06:05.211Z,1.10
2023-02-26T20:08:32.375Z,1.10
2023-02-26T20:10:59.457Z,1.10
2023-02-26T20:13:30.941Z,1.10
2023-02-26T20:16:01.066Z,1.10
2023-02-26T20:18:31.391Z,1.10
2023-02-26T20:21:08.149Z,1.10
2023-02-26T20:23:37.652Z,1.00
2023-02-26T20:26:08.076Z,1.00
2023-02-26T20:28:35.310Z,1.00
2023-02-26T20:31:03.690Z,1.00
2023-02-26T20:33:33.256Z,1.00
2023-02-26T20:36:01.073Z,1.00
2023-02-26T20:38:29.004Z,1.00
2023-02-26T20:40:56.776Z,1.00
2023-02-26T20:43:25.132Z,1.00
2023-02-26T20:45:54.000Z,1.00
2023-02-26T20:48:21.343Z,1.00
2023-02-26T20:50:49.776Z,1.00
2023-02-26T20:53:16.851Z,1.00
2023-02-26T20:55:43.942Z,1.00
2023-02-26T20:58:11.043Z,1.00
2023-02-26T21:00:38.347Z,1.00
2023-02-26T21:03:05.456Z,1.00
2023-02-26T21:05:34.437Z,1.00
2023-02-26T21:08:02.885Z,1.10
2023-02-26T21:10:29.943Z,1.10
2023-02-26T21:12:56.961Z,1.10
2023-02-26T21:15:24.059Z,1.00
2023-02-26T21:17:51.094Z,1.00
2023-02-26T21:20:18.248Z,1.00
2023-02-26T21:22:46.442Z,1.00
2023-02-26T21:25:13.905Z,1.00
2023-02-26T21:27:41.234Z,1.00
2023-02-26T21:30:11.279Z,1.10
2023-02-26T21:32:39.124Z,1.00
2023-02-26T21:35:08.016Z,1.00
2023-02-26T21:37:35.075Z,1.00
2023-02-26T21:40:02.263Z,1.00
2023-02-26T21:42:29.440Z,1.00
2023-02-26T21:44:56.667Z,1.00
2023-02-26T21:47:23.653Z,1.00
2023-02-26T21:49:50.699Z,1.00
2023-02-26T21:52:17.825Z,1.00
2023-02-26T21:54:44.894Z,1.00
2023-02-26T21:57:12.056Z,1.00
2023-02-26T21:59:39.101Z,1.00
2023-02-26T22:02:06.155Z,1.00
2023-02-26T22:04:33.975Z,1.00
2023-02-26T22:07:01.041Z,1.00
2023-02-26T22:09:28.152Z,1.00
2023-02-26T22:11:55.291Z,1.00
2023-02-26T22:14:22.490Z,1.00
2023-02-26T22:16:49.595Z,1.00
2023-02-26T22:19:16.806Z,1.00
2023-02-26T22:21:43.869Z,1.00
2023-02-26T22:24:11.064Z,1.00
2023-02-26T22:26:38.251Z,1.00
2023-02-26T22:29:05.352Z,1.00
2023-02-26T22:31:33.243Z,1.00
2023-02-26T22:34:00.712Z,1.00
2023-02-26T22:36:30.175Z,1.00
2023-02-26T22:38:57.452Z,1.00
2023-02-26T22:41:24.650Z,1.00
2023-02-26T22:43:53.863Z,1.00
2023-02-26T22:46:23.356Z,1.00
2023-02-26T22:48:50.507Z,1.00
2023-02-26T22:51:17.769Z,1.00
2023-02-26T22:53:44.906Z,1.00
2023-02-26T22:56:12.191Z,1.00
2023-02-26T22:58:39.393Z,1.00
2023-02-26T23:01:08.088Z,1.00
2023-02-26T23:03:35.102Z,1.00
2023-02-26T23:06:02.649Z,1.00
2023-02-26T23:08:29.605Z,0.90
2023-02-26T23:10:58.674Z,1.00
2023-02-26T23:13:26.396Z,1.00
2023-02-26T23:15:53.623Z,0.90
2023-02-26T23:18:21.033Z,1.00
2023-02-26T23:20:49.233Z,1.00
2023-02-26T23:23:16.944Z,1.00
2023-02-26T23:25:44.157Z,1.00
2023-02-26T23:28:12.125Z,1.00
2023-02-26T23:30:40.090Z,1.00
2023-02-26T23:33:07.517Z,1.00
2023-02-26T23:35:37.571Z,0.90
2023-02-26T23:38:05.383Z,0.90
2023-02-26T23:40:33.455Z,0.90
2023-02-26T23:43:00.567Z,0.90
2023-02-26T23:45:27.674Z,0.90
2023-02-26T23:47:54.673Z,0.90
2023-02-26T23:50:21.952Z,0.90
2023-02-26T23:52:49.085Z,0.90
2023-02-26T23:55:16.334Z,0.90
2023-02-26T23:57:44.155Z,0.90
